createdAt,value
2022-10-07T00:01:01.192Z,3.30
2022-10-07T00:03:28.867Z,3.15
2022-10-07T00:06:07.217Z,3.38
2022-10-07T00:08:36.320Z,3.38
2022-10-07T00:11:17.784Z,3.10
2022-10-07T00:13:46.264Z,3.20
2022-10-07T00:16:15.781Z,3.35
2022-10-07T00:18:42.370Z,3.45
2022-10-07T00:21:15.495Z,3.45
2022-10-07T00:23:43.725Z,3.38
2022-10-07T00:26:13.229Z,3.88
2022-10-07T00:31:12.927Z,3.60
2022-10-07T00:36:08.506Z,3.30
2022-10-07T00:38:35.566Z,2.88
2022-10-07T00:41:02.075Z,3.28
2022-10-07T00:43:31.475Z,3.58
2022-10-07T00:46:08.100Z,4.30
2022-10-07T00:48:36.939Z,3.47
2022-10-07T00:51:03.720Z,3.80
2022-10-07T00:53:32.703Z,3.60
2022-10-07T00:56:03.992Z,3.10
2022-10-07T00:58:33.773Z,4.53
2022-10-07T01:01:00.802Z,5.63
2022-10-07T01:03:28.206Z,4.43
2022-10-07T01:05:54.944Z,4.38
2022-10-07T01:08:22.975Z,5.20
2022-10-07T01:11:14.082Z,4.68
2022-10-07T01:14:03.755Z,5.60
2022-10-07T01:17:00.919Z,5.80
2022-10-07T01:20:03.166Z,5.82
2022-10-07T01:22:32.726Z,5.68
2022-10-07T01:25:27.103Z,4.82
2022-10-07T01:27:58.682Z,4.70
2022-10-07T01:30:25.500Z,4.20
2022-10-07T01:32:59.321Z,4.63
2022-10-07T01:35:32.791Z,4.82
2022-10-07T01:38:05.594Z,4.18
2022-10-07T01:40:40.614Z,4.38
2022-10-07T01:43:07.456Z,4.68
2022-10-07T01:45:39.206Z,4.40
2022-10-07T01:48:05.918Z,3.97
2022-10-07T01:50:33.502Z,3.38
2022-10-07T01:53:39.269Z,4.65
2022-10-07T01:56:33.399Z,4.40
2022-10-07T01:59:21.369Z,4.53
2022-10-07T02:02:11.743Z,4.40
2022-10-07T02:04:44.180Z,4.30
2022-10-07T02:07:35.995Z,3.85
2022-10-07T02:10:22.724Z,4.88
2022-10-07T02:12:57.385Z,3.80
2022-10-07T02:15:42.852Z,3.85
2022-10-07T02:18:15.445Z,4.10
2022-10-07T02:20:46.435Z,3.60
2022-10-07T02:25:46.716Z,4.05
2022-10-07T02:28:16.217Z,4.25
2022-10-07T02:30:47.137Z,4.60
2022-10-07T02:33:14.657Z,4.10
2022-10-07T02:35:51.156Z,4.28
2022-10-07T02:38:18.564Z,4.07
2022-10-07T02:40:48.137Z,4.30
2022-10-07T02:43:39.248Z,4.53
2022-10-07T02:46:27.073Z,4.05
2022-10-07T02:49:00.664Z,4.00
2022-10-07T02:53:57.807Z,4.05
2022-10-07T02:56:27.284Z,4.35
2022-10-07T02:58:54.293Z,4.10
2022-10-07T03:01:25.221Z,4.30
2022-10-07T03:03:51.982Z,4.57
2022-10-07T03:06:19.104Z,4.05
2022-10-07T03:08:47.771Z,4.82
2022-10-07T03:11:14.361Z,4.10
2022-10-07T03:13:40.848Z,4.80
2022-10-07T03:16:07.474Z,5.03
2022-10-07T03:18:34.539Z,4.75
2022-10-07T03:21:01.153Z,5.13
2022-10-07T03:23:29.544Z,5.28
2022-10-07T03:25:58.265Z,4.43
2022-10-07T03:28:29.059Z,4.40
2022-10-07T03:31:07.572Z,4.03
2022-10-07T03:33:35.699Z,4.13
2022-10-07T03:36:02.338Z,4.63
2022-10-07T03:38:28.910Z,4.90
2022-10-07T03:40:55.470Z,4.75
2022-10-07T03:43:22.024Z,6.00
2022-10-07T03:45:51.793Z,5.10
2022-10-07T03:48:18.737Z,4.97
2022-10-07T03:50:52.623Z,5.53
2022-10-07T03:53:20.410Z,4.57
2022-10-07T03:55:47.074Z,4.57
2022-10-07T03:58:13.610Z,5.05
2022-10-07T04:00:41.215Z,6.00
2022-10-07T04:03:08.201Z,6.78
2022-10-07T04:05:36.333Z,6.20
2022-10-07T04:08:04.880Z,5.55
2022-10-07T04:10:32.064Z,7.38
2022-10-07T04:12:58.666Z,6.30
2022-10-07T04:15:25.697Z,5.88
2022-10-07T04:17:58.691Z,6.65
2022-10-07T04:20:26.303Z,6.40
2022-10-07T04:22:53.108Z,6.20
2022-10-07T04:25:35.224Z,5.35
2022-10-07T04:28:07.907Z,6.57
2022-10-07T04:30:39.858Z,6.13
2022-10-07T04:33:07.693Z,6.40
2022-10-07T04:35:37.141Z,7.00
2022-10-07T04:38:03.890Z,8.65
2022-10-07T04:40:31.116Z,7.45
2022-10-07T04:43:16.502Z,5.97
2022-10-07T04:45:43.047Z,5.55
2022-10-07T04:48:09.980Z,5.55
2022-10-07T04:50:39.610Z,6.40
2022-10-07T04:53:10.859Z,5.63
2022-10-07T04:55:42.623Z,5.65
2022-10-07T04:58:09.240Z,5.03
2022-10-07T05:00:40.850Z,5.18
2022-10-07T05:03:07.418Z,6.18
2022-10-07T05:05:34.532Z,5.63
2022-10-07T05:08:01.060Z,5.55
2022-10-07T05:10:27.594Z,5.40
2022-10-07T05:12:56.183Z,4.90
2022-10-07T05:15:23.552Z,5.57
2022-10-07T05:17:50.328Z,5.32
2022-10-07T05:20:16.961Z,4.35
2022-10-07T05:22:43.513Z,5.00
2022-10-07T05:25:10.022Z,4.18
2022-10-07T05:27:36.572Z,5.63
2022-10-07T05:30:03.523Z,4.35
2022-10-07T05:32:30.042Z,4.57
2022-10-07T05:34:56.594Z,4.47
2022-10-07T05:37:23.508Z,4.25
2022-10-07T05:39:50.022Z,4.10
2022-10-07T05:42:16.592Z,4.97
2022-10-07T05:44:43.262Z,5.00
2022-10-07T05:47:09.785Z,4.15
2022-10-07T05:49:36.373Z,5.57
2022-10-07T05:52:03.685Z,5.10
2022-10-07T05:54:30.394Z,5.38
2022-10-07T05:56:57.047Z,4.85
2022-10-07T05:59:23.570Z,5.70
2022-10-07T06:01:50.160Z,7.15
2022-10-07T06:04:16.685Z,6.90
2022-10-07T06:06:43.285Z,6.95
2022-10-07T06:09:29.916Z,7.57
2022-10-07T06:12:14.953Z,7.50
2022-10-07T06:14:42.117Z,6.05
2022-10-07T06:17:08.713Z,7.50
2022-10-07T06:19:37.615Z,7.00
2022-10-07T06:22:04.657Z,6.45
2022-10-07T06:24:33.827Z,7.00
2022-10-07T06:27:00.357Z,7.47
2022-10-07T06:29:27.044Z,7.03
2022-10-07T06:31:53.573Z,6.88
2022-10-07T06:34:20.124Z,6.95
2022-10-07T06:36:46.718Z,8.43
2022-10-07T06:39:13.232Z,8.20
2022-10-07T06:41:39.809Z,8.10
2022-10-07T06:44:06.375Z,8.10
2022-10-07T06:46:32.890Z,8.32
2022-10-07T06:48:59.448Z,7.07
2022-10-07T06:51:26.002Z,6.45
2022-10-07T06:53:56.495Z,6.63
2022-10-07T06:56:23.080Z,5.57
2022-10-07T06:58:50.062Z,6.72
2022-10-07T07:01:17.267Z,6.30
2022-10-07T07:03:43.917Z,6.65
2022-10-07T07:06:13.833Z,6.00
2022-10-07T07:08:41.382Z,5.75
2022-10-07T07:11:31.365Z,6.68
2022-10-07T07:13:58.496Z,5.75
2022-10-07T07:16:25.413Z,6.85
2022-10-07T07:18:53.782Z,5.53
2022-10-07T07:21:21.030Z,6.55
2022-10-07T07:23:47.713Z,5.53
2022-10-07T07:26:14.826Z,5.57
2022-10-07T07:28:41.723Z,5.53
2022-10-07T07:31:10.182Z,5.75
2022-10-07T07:33:38.405Z,5.10
2022-10-07T07:36:15.940Z,5.10
2022-10-07T07:38:43.603Z,5.82
2022-10-07T07:41:10.977Z,6.50
2022-10-07T07:43:37.596Z,5.85
2022-10-07T07:46:04.972Z,6.97
2022-10-07T07:48:31.650Z,7.00
2022-10-07T07:50:58.205Z,6.07
2022-10-07T07:53:24.719Z,7.85
2022-10-07T07:55:58.218Z,6.72
2022-10-07T07:58:25.000Z,7.07
2022-10-07T08:01:07.533Z,7.47
2022-10-07T08:03:38.614Z,7.45
2022-10-07T08:06:07.031Z,7.03
2022-10-07T08:08:34.464Z,6.72
2022-10-07T08:11:28.245Z,6.72
2022-10-07T08:13:56.139Z,6.72
2022-10-07T08:16:25.033Z,6.45
2022-10-07T08:21:22.022Z,8.98
2022-10-07T08:23:52.375Z,9.00
2022-10-07T08:26:18.968Z,9.88
2022-10-07T08:28:46.491Z,10.18
2022-10-07T08:31:17.263Z,10.52
2022-10-07T08:33:46.051Z,10.27
2022-10-07T08:36:15.182Z,10.13
2022-10-07T08:38:42.010Z,7.97
2022-10-07T08:41:34.321Z,7.50
2022-10-07T08:44:17.744Z,8.68
2022-10-07T08:46:51.004Z,16.77
2022-10-07T08:49:24.374Z,18.92
2022-10-07T08:51:58.450Z,18.55
2022-10-07T08:56:55.774Z,7.80
2022-10-07T08:59:30.347Z,11.50
2022-10-07T09:02:24.696Z,12.68
2022-10-07T09:05:02.430Z,10.55
2022-10-07T09:07:47.888Z,10.57
2022-10-07T09:10:38.872Z,7.47
2022-10-07T09:13:17.917Z,6.95
2022-10-07T09:15:44.471Z,6.10
2022-10-07T09:18:19.564Z,6.82
2022-10-07T09:20:53.533Z,7.30
2022-10-07T09:23:25.950Z,6.63
2022-10-07T09:25:52.791Z,6.15
2022-10-07T09:28:25.601Z,6.22
2022-10-07T09:30:52.383Z,6.18
2022-10-07T09:33:21.845Z,5.57
2022-10-07T09:35:57.545Z,5.60
2022-10-07T09:38:41.023Z,6.00
2022-10-07T09:41:21.914Z,5.38
2022-10-07T09:43:59.445Z,5.25
2022-10-07T09:47:09.759Z,4.97
2022-10-07T09:49:42.051Z,5.20
2022-10-07T09:52:14.645Z,5.07
2022-10-07T09:54:42.697Z,4.43
2022-10-07T09:57:29.371Z,4.80
2022-10-07T10:00:13.918Z,4.47
2022-10-07T10:02:43.369Z,4.53
2022-10-07T10:05:41.149Z,4.88
2022-10-07T10:08:23.919Z,4.32
2022-10-07T10:10:52.091Z,4.88
2022-10-07T10:13:40.622Z,4.50
2022-10-07T10:16:34.368Z,4.35
2022-10-07T10:19:20.580Z,4.82
2022-10-07T10:22:00.453Z,4.68
2022-10-07T10:24:49.950Z,4.93
2022-10-07T10:27:26.006Z,4.20
2022-10-07T10:29:55.206Z,4.05
2022-10-07T10:32:27.388Z,4.68
2022-10-07T10:35:00.522Z,4.80
2022-10-07T10:37:42.025Z,4.22
2022-10-07T10:40:41.285Z,4.93
2022-10-07T10:43:13.690Z,4.22
2022-10-07T10:46:19.494Z,5.05
2022-10-07T10:49:19.619Z,5.22
2022-10-07T10:52:18.069Z,6.18
2022-10-07T10:54:58.071Z,4.95
2022-10-07T10:58:09.733Z,4.53
2022-10-07T11:01:05.271Z,4.20
2022-10-07T11:03:45.130Z,4.35
2022-10-07T11:06:16.445Z,4.50
2022-10-07T11:08:43.713Z,3.95
2022-10-07T11:11:21.831Z,3.88
2022-10-07T11:14:07.347Z,3.30
2022-10-07T11:16:39.921Z,3.30
2022-10-07T11:19:20.890Z,3.17
2022-10-07T11:21:51.027Z,3.50
2022-10-07T11:24:26.814Z,3.80
2022-10-07T11:26:59.747Z,2.92
2022-10-07T11:29:34.072Z,3.05
2022-10-07T11:32:20.651Z,3.38
2022-10-07T11:35:05.042Z,3.40
2022-10-07T11:37:40.100Z,3.10
2022-10-07T11:40:07.814Z,2.78
2022-10-07T11:42:43.098Z,3.40
2022-10-07T11:45:21.323Z,3.17
2022-10-07T11:47:56.290Z,3.13
2022-10-07T11:50:29.315Z,2.88
2022-10-07T11:53:03.634Z,2.92
2022-10-07T11:55:40.251Z,2.85
2022-10-07T11:58:23.969Z,3.00
2022-10-07T12:00:50.677Z,2.38
2022-10-07T12:03:20.284Z,3.00
2022-10-07T12:05:49.949Z,3.38
2022-10-07T12:08:19.223Z,3.10
2022-10-07T12:10:45.762Z,3.10
2022-10-07T12:13:12.271Z,2.60
2022-10-07T12:15:43.126Z,3.15
2022-10-07T12:18:10.505Z,3.28
2022-10-07T12:20:58.706Z,3.42
2022-10-07T12:23:32.238Z,3.65
2022-10-07T12:26:04.636Z,3.65
2022-10-07T12:28:35.152Z,3.58
2022-10-07T12:31:15.400Z,3.10
2022-10-07T12:33:45.323Z,3.55
2022-10-07T12:36:21.407Z,3.42
2022-10-07T12:38:59.319Z,3.38
2022-10-07T12:41:28.108Z,3.50
2022-10-07T12:44:00.495Z,3.00
2022-10-07T12:46:32.706Z,3.67
2022-10-07T12:49:17.378Z,3.63
2022-10-07T12:51:45.018Z,3.72
2022-10-07T12:54:20.262Z,3.70
2022-10-07T12:56:47.984Z,3.75
2022-10-07T12:59:47.019Z,3.80
2022-10-07T13:02:46.720Z,3.70
2022-10-07T13:05:41.479Z,4.22
2022-10-07T13:08:35.618Z,3.45
2022-10-07T13:11:49.395Z,3.63
2022-10-07T13:14:37.772Z,3.47
2022-10-07T13:17:17.576Z,3.75
2022-10-07T13:19:50.008Z,3.58
2022-10-07T13:22:18.455Z,3.15
2022-10-07T13:24:54.873Z,3.38
2022-10-07T13:27:27.789Z,3.13
2022-10-07T13:29:56.379Z,3.33
2022-10-07T13:32:29.716Z,3.00
2022-10-07T13:35:01.329Z,3.38
2022-10-07T13:37:33.758Z,3.35
2022-10-07T13:40:20.904Z,2.90
2022-10-07T13:42:59.867Z,3.28
2022-10-07T13:45:28.268Z,3.10
2022-10-07T13:47:57.101Z,3.28
2022-10-07T13:50:30.687Z,3.05
2022-10-07T13:52:58.162Z,2.90
2022-10-07T13:55:35.842Z,3.00
2022-10-07T13:58:04.528Z,2.92
2022-10-07T14:00:40.479Z,3.13
2022-10-07T14:03:15.073Z,3.42
2022-10-07T14:05:51.587Z,3.60
2022-10-07T14:08:21.542Z,3.33
2022-10-07T14:10:59.630Z,3.70
2022-10-07T14:13:29.006Z,3.45
2022-10-07T14:15:58.475Z,3.15
2022-10-07T14:18:29.566Z,3.50
2022-10-07T14:21:07.784Z,3.40
2022-10-07T14:23:36.459Z,3.53
2022-10-07T14:26:07.112Z,3.80
2022-10-07T14:28:36.209Z,4.10
2022-10-07T14:31:27.692Z,4.03
2022-10-07T14:34:33.056Z,3.83
2022-10-07T14:37:19.837Z,3.55
2022-10-07T14:39:48.747Z,3.58
2022-10-07T14:42:21.655Z,3.70
2022-10-07T14:44:49.003Z,3.40
2022-10-07T14:47:21.161Z,3.40
2022-10-07T14:49:48.727Z,3.85
2022-10-07T14:52:22.534Z,3.50
2022-10-07T14:54:51.985Z,3.40
2022-10-07T14:57:18.815Z,3.53
2022-10-07T14:59:47.808Z,3.70
2022-10-07T15:02:14.394Z,3.00
2022-10-07T15:04:44.235Z,4.43
2022-10-07T15:07:15.873Z,4.13
2022-10-07T15:09:44.361Z,3.17
2022-10-07T15:12:15.955Z,3.67
2022-10-07T15:14:42.813Z,3.58
2022-10-07T15:17:12.348Z,3.67
2022-10-07T15:19:39.003Z,3.17
2022-10-07T15:22:05.795Z,3.30
2022-10-07T15:24:33.218Z,4.05
2022-10-07T15:27:00.089Z,3.50
2022-10-07T15:29:26.933Z,3.28
2022-10-07T15:31:53.817Z,2.72
2022-10-07T15:34:20.600Z,2.90
2022-10-07T15:36:48.068Z,2.95
2022-10-07T15:39:14.621Z,3.40
2022-10-07T15:41:42.725Z,2.33
2022-10-07T15:44:18.349Z,2.72
2022-10-07T15:46:48.911Z,2.55
2022-10-07T15:49:18.799Z,2.90
2022-10-07T15:51:46.730Z,2.75
2022-10-07T15:54:13.577Z,2.58
2022-10-07T15:56:40.533Z,2.95
2022-10-07T15:59:07.157Z,3.17
2022-10-07T16:01:33.784Z,3.17
2022-10-07T16:04:02.511Z,2.80
2022-10-07T16:06:32.637Z,2.92
2022-10-07T16:09:00.429Z,3.28
2022-10-07T16:11:28.899Z,3.17
2022-10-07T16:13:55.696Z,3.10
2022-10-07T16:16:25.594Z,2.60
2022-10-07T16:18:56.426Z,2.85
2022-10-07T16:21:28.012Z,2.80
2022-10-07T16:24:03.405Z,3.25
2022-10-07T16:26:30.808Z,2.85
2022-10-07T16:29:18.027Z,3.20
2022-10-07T16:31:46.214Z,3.00
2022-10-07T16:34:15.110Z,2.42
2022-10-07T16:36:45.559Z,3.63
2022-10-07T16:39:12.742Z,3.42
2022-10-07T16:41:42.822Z,3.72
2022-10-07T16:44:09.773Z,3.10
2022-10-07T16:46:36.858Z,3.50
2022-10-07T16:49:08.566Z,3.83
2022-10-07T16:51:36.794Z,4.07
2022-10-07T16:54:05.885Z,3.75
2022-10-07T16:56:34.734Z,3.55
2022-10-07T16:59:04.251Z,3.38
2022-10-07T17:01:31.392Z,3.58
2022-10-07T17:03:59.619Z,3.70
2022-10-07T17:06:29.014Z,3.47
2022-10-07T17:08:57.898Z,3.22
2022-10-07T17:11:30.293Z,3.15
2022-10-07T17:14:20.616Z,3.05
2022-10-07T17:16:49.905Z,3.08
2022-10-07T17:19:19.471Z,3.42
2022-10-07T17:21:47.952Z,3.28
2022-10-07T17:24:15.849Z,2.92
2022-10-07T17:26:42.901Z,3.33
2022-10-07T17:29:12.190Z,3.67
2022-10-07T17:31:42.572Z,3.17
2022-10-07T17:34:11.667Z,3.90
2022-10-07T17:36:39.333Z,3.17
2022-10-07T17:39:06.303Z,3.30
2022-10-07T17:41:34.841Z,3.50
2022-10-07T17:44:08.259Z,3.47
2022-10-07T17:46:36.666Z,3.03
2022-10-07T17:49:03.768Z,3.30
2022-10-07T17:51:31.875Z,3.58
2022-10-07T17:54:03.608Z,3.60
2022-10-07T17:56:37.398Z,3.30
2022-10-07T17:59:05.403Z,3.30
2022-10-07T18:01:36.230Z,2.90
2022-10-07T18:04:10.950Z,3.35
2022-10-07T18:06:39.189Z,3.40
2022-10-07T18:09:08.229Z,3.88
2022-10-07T18:11:54.303Z,3.40
2022-10-07T18:14:39.685Z,3.80
2022-10-07T18:17:08.180Z,3.65
2022-10-07T18:19:34.857Z,3.67
2022-10-07T18:22:03.007Z,3.45
2022-10-07T18:24:29.814Z,3.40
2022-10-07T18:26:58.974Z,3.97
2022-10-07T18:29:30.707Z,3.45
2022-10-07T18:31:57.452Z,3.67
2022-10-07T18:34:24.641Z,3.53
2022-10-07T18:36:55.923Z,3.40
2022-10-07T18:39:23.135Z,3.55
2022-10-07T18:41:49.685Z,3.90
2022-10-07T18:44:16.345Z,3.65
2022-10-07T18:46:42.936Z,3.47
2022-10-07T18:49:09.667Z,3.30
2022-10-07T18:51:36.298Z,3.00
2022-10-07T18:54:02.877Z,3.55
2022-10-07T18:56:29.434Z,3.53
2022-10-07T18:58:56.033Z,3.22
2022-10-07T19:01:24.888Z,3.28
2022-10-07T19:03:56.321Z,3.72
2022-10-07T19:06:25.587Z,3.38
2022-10-07T19:09:00.677Z,4.78
2022-10-07T19:11:29.265Z,5.70
2022-10-07T19:13:58.896Z,4.88
2022-10-07T19:16:36.305Z,4.93
2022-10-07T19:19:08.561Z,4.53
2022-10-07T19:21:35.856Z,3.92
2022-10-07T19:24:03.645Z,3.80
2022-10-07T19:26:42.850Z,4.35
2022-10-07T19:29:10.790Z,3.40
2022-10-07T19:31:40.628Z,4.10
2022-10-07T19:34:13.630Z,3.40
2022-10-07T19:36:42.487Z,3.45
2022-10-07T19:39:10.687Z,3.83
2022-10-07T19:41:37.634Z,3.53
2022-10-07T19:44:04.812Z,4.97
2022-10-07T19:46:33.476Z,3.83
2022-10-07T19:49:02.035Z,4.20
2022-10-07T19:51:31.202Z,3.92
2022-10-07T19:53:59.758Z,3.97
2022-10-07T19:56:29.518Z,4.53
2022-10-07T19:59:02.576Z,4.20
2022-10-07T20:01:34.098Z,4.75
2022-10-07T20:04:06.416Z,5.40
2022-10-07T20:06:36.979Z,4.85
2022-10-07T20:09:05.817Z,5.50
2022-10-07T20:11:32.778Z,4.95
2022-10-07T20:13:59.973Z,5.30
2022-10-07T20:16:27.633Z,5.13
2022-10-07T20:19:01.187Z,4.50
2022-10-07T20:21:28.805Z,4.63
2022-10-07T20:23:55.468Z,4.63
2022-10-07T20:26:30.625Z,4.32
2022-10-07T20:28:59.575Z,4.90
2022-10-07T20:31:29.325Z,4.50
2022-10-07T20:33:57.743Z,3.95
2022-10-07T20:36:30.081Z,4.25
2022-10-07T20:39:39.406Z,4.47
2022-10-07T20:42:22.394Z,3.63
2022-10-07T20:44:49.743Z,3.80
2022-10-07T20:47:16.810Z,4.10
2022-10-07T20:49:43.410Z,4.10
2022-10-07T20:52:16.979Z,4.20
2022-10-07T20:54:44.718Z,4.13
2022-10-07T20:57:17.240Z,3.97
2022-10-07T20:59:44.216Z,3.97
2022-10-07T21:02:13.576Z,4.50
2022-10-07T21:04:40.540Z,4.60
2022-10-07T21:07:08.296Z,4.90
2022-10-07T21:09:37.678Z,3.90
2022-10-07T21:12:07.718Z,4.38
2022-10-07T21:14:35.389Z,4.80
2022-10-07T21:17:02.281Z,4.32
2022-10-07T21:19:31.672Z,4.15
2022-10-07T21:21:58.507Z,4.63
2022-10-07T21:24:25.142Z,5.25
2022-10-07T21:26:51.665Z,7.35
2022-10-07T21:29:19.032Z,7.10
2022-10-07T21:31:45.625Z,7.50
2022-10-07T21:34:12.158Z,7.68
2022-10-07T21:36:42.606Z,6.70
2022-10-07T21:39:11.254Z,7.65
2022-10-07T21:41:38.768Z,7.97
2022-10-07T21:44:12.199Z,7.13
2022-10-07T21:46:40.126Z,7.25
2022-10-07T21:49:07.782Z,7.53
2022-10-07T21:51:35.332Z,8.38
2022-10-07T21:54:02.616Z,7.68
2022-10-07T21:56:31.236Z,7.55
2022-10-07T21:59:04.058Z,7.80
2022-10-07T22:01:32.151Z,7.65
2022-10-07T22:04:01.635Z,6.80
2022-10-07T22:06:48.982Z,7.28
2022-10-07T22:09:18.439Z,7.45
2022-10-07T22:11:45.298Z,6.47
2022-10-07T22:14:13.011Z,6.72
2022-10-07T22:16:40.341Z,6.57
2022-10-07T22:19:07.029Z,6.90
2022-10-07T22:21:38.353Z,7.28
2022-10-07T22:24:07.061Z,7.50
2022-10-07T22:26:48.190Z,6.47
2022-10-07T22:29:16.676Z,7.63
2022-10-07T22:31:43.763Z,6.97
2022-10-07T22:34:33.638Z,6.60
2022-10-07T22:37:00.301Z,7.25
2022-10-07T22:39:28.722Z,7.22
2022-10-07T22:41:55.378Z,7.00
2022-10-07T22:44:21.908Z,6.90
2022-10-07T22:46:48.852Z,6.78
2022-10-07T22:49:15.512Z,7.15
2022-10-07T22:51:42.560Z,6.45
2022-10-07T22:54:12.301Z,5.75
2022-10-07T22:56:39.839Z,6.00
2022-10-07T22:59:08.485Z,6.32
2022-10-07T23:01:35.233Z,5.45
2022-10-07T23:04:03.290Z,5.70
2022-10-07T23:06:33.057Z,6.13
2022-10-07T23:09:00.484Z,6.00
2022-10-07T23:11:28.577Z,6.68
2022-10-07T23:13:55.571Z,5.68
2022-10-07T23:16:25.135Z,6.07
2022-10-07T23:18:55.483Z,6.40
2022-10-07T23:21:27.225Z,6.40
2022-10-07T23:24:05.967Z,6.00
2022-10-07T23:26:34.219Z,5.05
2022-10-07T23:29:01.478Z,5.20
2022-10-07T23:31:30.408Z,4.93
2022-10-07T23:33:58.579Z,4.78
2022-10-07T23:36:25.762Z,4.38
2022-10-07T23:38:53.079Z,4.63
2022-10-07T23:41:24.756Z,3.78
2022-10-07T23:43:52.843Z,4.03
2022-10-07T23:46:20.591Z,3.80
2022-10-07T23:48:47.213Z,3.75
2022-10-07T23:51:16.258Z,2.75
2022-10-07T23:53:42.800Z,2.60
2022-10-07T23:56:09.522Z,3.25
2022-10-07T23:58:36.899Z,2.88
